Hughes, AK

10:51 AM AKDT on September 02, 2014 (GMT -0800)
Indian Mountain | Change Station
CLOSE
Current Station
Airport
Location: Indian Mountain,
Elevation: 1276 ft
Nearby Weather Stations

Elev 1276 ft 65.99 °N, 153.70 °W | Updated 14 minutes ago

Mostly Cloudy
Mostly Cloudy
36 °F
Feels Like 28 °F
N
12
Wind Variable Wind from WNW
Gusts 24 mph

Today
High -- | Low -- °F
--% Chance of Precip.
Yesterday
High -- | Low -- °F
Precip. -- in
6:54 AM 9:32 PM
First Quarter, 54% visible
Pressure 29.82 in
Visibility 10.0 miles
Clouds Mostly Cloudy 1000 ft
Windchill 28 °F
Dew Point 32 °F
Humidity 87%
Rainfall 0.00 in
Snow Depth Not available.
UV 1 out of 12
Pollen Not available.
Air Quality Not available.
Flu Activity Not available.
SPECI PAIM 021837Z AUTO 29010G21KT 10SM BKN010 02/00 A2978 RMK AO2 SLP096

More Conditions Fewer Conditions

Pressure 29.82 in
Visibility 10.0 miles
Clouds Mostly Cloudy 1000 ft
Windchill 28 °F
Dew Point 32 °F
Humidity 87%
Rainfall 0.00 in
Snow Depth Not available.
UV 1 out of 12
Pollen Not available.
Air Quality Not available.
Flu Activity Not available.
SPECI PAIM 021837Z AUTO 29010G21KT 10SM BKN010 02/00 A2978 RMK AO2 SLP096

More Conditions Fewer Conditions

10-Day Weather Forecast

Almanac

Astronomy

Sep. 02, 2014 Rise Set
Actual Time 6:54 AM AKDT 9:32 PM AKDT
Civil Twilight 5:56 AM AKDT 10:29 PM AKDT
Nautical Twilight 4:32 AM AKDT 11:51 PM AKDT
Astronomical Twilight 2:46 AM AKDT 1:41 AM AKDT
Moon 5:54 PM AKDT 11:30 PM AKDT
Length of Visible Light 16h 33m
Length of Day
14h 38m
Tomorrow will be 7m 8s shorter.
First Quarter, 54% of the Moon is Illuminated
Today
First Quarter
Sep 8
Full
Sep 15
Last Quarter
Sep 24
New
Oct 1
First Quarter

Today's Extremes

State Highs State Lows

Community

WunderPhotos

Upload Photos

1,749,743 photos uploaded!

WunderBlogs® & News

By Dr. Jeff Masters
Director of Meteorology, Weather Underground
By Kari Strenfel
Meteorologist, Weather Underground
By Christopher C. Burt
Weather Historian, Weather Underground
September 2, 2014
September 2, 2014
September 2, 2014

Nearby

Snow Depth

Station Depth Elevation
Gobblers Knob 0 in 2030 ft
Coldfoot 1 in 1040 ft
Atigun Pass 9 in 4800 ft
Little Chena Ridge 1 in 2000 ft
Imnaviat Creek 94 in 3050 ft

Earthquake Activity

City Distance Mag. Time & Date
No recent earthquake activity has been reported nearby.
Minimum magnitude displayed is 2.5.

Coastal Water Temperatures

Place Temperature
No Stations Reporting

Nearby Weather Stations